createdAt,value
2019-04-26T00:01:56.072Z,95117.00
2019-04-26T00:04:28.640Z,95106.00
2019-04-26T00:07:00.578Z,95100.00
2019-04-26T00:09:37.681Z,95104.00
2019-04-26T00:12:26.670Z,95094.00
2019-04-26T00:15:18.433Z,95091.00
2019-04-26T00:17:54.642Z,95087.00
2019-04-26T00:20:26.498Z,95089.00
2019-04-26T00:22:58.454Z,95090.00
2019-04-26T00:25:30.308Z,95081.00
2019-04-26T00:28:02.312Z,95076.00
2019-04-26T00:30:34.488Z,95081.00
2019-04-26T00:33:07.083Z,95085.00
2019-04-26T00:35:47.267Z,95088.00
2019-04-26T00:38:14.148Z,95087.00
2019-04-26T00:40:47.264Z,95099.00
2019-04-26T00:43:20.563Z,95095.00
2019-04-26T00:45:54.228Z,95102.00
2019-04-26T00:48:27.073Z,95097.00
2019-04-26T00:50:59.165Z,95101.00
2019-04-26T00:53:31.678Z,95102.00
2019-04-26T00:56:04.251Z,95092.00
2019-04-26T00:58:36.704Z,95097.00
2019-04-26T01:01:08.862Z,95098.00
2019-04-26T01:03:41.094Z,95084.00
2019-04-26T01:06:15.728Z,95103.00
2019-04-26T01:08:51.140Z,95098.00
2019-04-26T01:11:22.491Z,95097.00
2019-04-26T01:13:54.381Z,95084.00
2019-04-26T01:16:26.509Z,95090.00
2019-04-26T01:18:59.937Z,95088.00
2019-04-26T01:21:40.496Z,95090.00
2019-04-26T01:24:14.098Z,95093.00
2019-04-26T01:26:48.120Z,95100.00
2019-04-26T01:29:22.197Z,95087.00
2019-04-26T01:32:04.418Z,95096.00
2019-04-26T01:37:26.744Z,95084.00
2019-04-26T01:40:05.237Z,95098.00
2019-04-26T01:43:07.745Z,95096.00
2019-04-26T01:45:52.628Z,95089.00
2019-04-26T01:48:45.996Z,95116.00
2019-04-26T01:51:28.677Z,95112.00
2019-04-26T01:54:00.540Z,95094.00
2019-04-26T01:56:36.343Z,95104.00
2019-04-26T01:59:10.357Z,95103.00
2019-04-26T02:01:58.630Z,95107.00
2019-04-26T02:04:32.754Z,95105.00
2019-04-26T02:07:04.934Z,95099.00
2019-04-26T02:09:37.119Z,95107.00
2019-04-26T02:12:09.009Z,95100.00
2019-04-26T02:14:41.239Z,95088.00
2019-04-26T02:17:13.315Z,95087.00
2019-04-26T02:19:45.478Z,95091.00
2019-04-26T02:22:30.442Z,95077.00
2019-04-26T02:25:02.302Z,95075.00
2019-04-26T02:27:34.577Z,95084.00
2019-04-26T02:30:08.420Z,95087.00
2019-04-26T02:32:41.155Z,95084.00
2019-04-26T02:35:13.532Z,95081.00
2019-04-26T02:37:45.800Z,95086.00
2019-04-26T02:40:18.757Z,95093.00
2019-04-26T02:42:51.942Z,95086.00
2019-04-26T02:46:10.171Z,95093.00
2019-04-26T02:49:32.986Z,95086.00
2019-04-26T02:52:48.460Z,95096.00
2019-04-26T02:56:23.329Z,95079.00
2019-04-26T02:59:48.126Z,95093.00
2019-04-26T03:02:26.556Z,95084.00
2019-04-26T03:05:02.796Z,95102.00
2019-04-26T03:08:03.019Z,95092.00
2019-04-26T03:10:44.265Z,95105.00
2019-04-26T03:13:25.950Z,95113.00
2019-04-26T03:16:29.362Z,95114.00
2019-04-26T03:19:15.122Z,95115.00
2019-04-26T03:22:05.723Z,95139.00
2019-04-26T03:24:49.548Z,95129.00
2019-04-26T03:28:10.600Z,95128.00
2019-04-26T03:31:01.829Z,95128.00
2019-04-26T03:34:01.928Z,95116.00
2019-04-26T03:37:36.010Z,95126.00
2019-04-26T03:40:34.594Z,95129.00
2019-04-26T03:43:44.561Z,95128.00
2019-04-26T03:47:01.453Z,95127.00
2019-04-26T03:50:11.471Z,95137.00
2019-04-26T03:53:46.243Z,95131.00
2019-04-26T03:57:18.150Z,95130.00
2019-04-26T04:00:18.993Z,95137.00
2019-04-26T04:03:13.762Z,95131.00
2019-04-26T04:05:49.139Z,95134.00
2019-04-26T04:08:33.833Z,95132.00
2019-04-26T04:11:10.152Z,95131.00
2019-04-26T04:14:12.226Z,95137.00
2019-04-26T04:17:37.359Z,95142.00
2019-04-26T04:20:55.994Z,95147.00
2019-04-26T04:23:51.888Z,95141.00
2019-04-26T04:26:39.608Z,95142.00
2019-04-26T04:29:42.948Z,95152.00
2019-04-26T04:32:23.382Z,95151.00
2019-04-26T04:34:57.067Z,95154.00
2019-04-26T04:37:34.027Z,95101.00
2019-04-26T04:40:37.547Z,95161.00
2019-04-26T04:43:48.331Z,95154.00
2019-04-26T04:47:24.381Z,95161.00
2019-04-26T04:50:23.646Z,95149.00
2019-04-26T04:53:49.618Z,95147.00
2019-04-26T04:58:01.701Z,95161.00
2019-04-26T05:01:33.043Z,95176.00
2019-04-26T05:04:23.550Z,95181.00
2019-04-26T05:07:31.770Z,95184.00
2019-04-26T05:10:34.178Z,95187.00
2019-04-26T05:13:46.411Z,95195.00
2019-04-26T05:17:05.398Z,95196.00
2019-04-26T05:20:17.914Z,95194.00
2019-04-26T05:23:39.944Z,95211.00
2019-04-26T05:27:04.877Z,95198.00
2019-04-26T05:30:52.085Z,95221.00
2019-04-26T05:34:12.845Z,95221.00
2019-04-26T05:37:19.704Z,95222.00
2019-04-26T05:40:30.298Z,95221.00
2019-04-26T05:43:37.076Z,95242.00
2019-04-26T05:47:04.806Z,95242.00
2019-04-26T05:50:33.066Z,95246.00
2019-04-26T05:54:43.295Z,95244.00
2019-04-26T05:57:50.963Z,95240.00
2019-04-26T06:00:53.916Z,95238.00
2019-04-26T06:04:20.798Z,95250.00
2019-04-26T06:07:45.035Z,95259.00
2019-04-26T06:10:42.026Z,95259.00
2019-04-26T06:14:04.270Z,95260.00
2019-04-26T06:17:34.991Z,95276.00
2019-04-26T06:20:32.277Z,95283.00
2019-04-26T06:23:33.050Z,95287.00
2019-04-26T06:27:10.334Z,95285.00
2019-04-26T06:29:45.937Z,95277.00
2019-04-26T06:32:32.822Z,95269.00
2019-04-26T06:35:20.165Z,95275.00
2019-04-26T06:39:19.872Z,95262.00
2019-04-26T06:42:35.497Z,95279.00
2019-04-26T06:46:06.617Z,95286.00
2019-04-26T06:49:28.846Z,95288.00
2019-04-26T06:52:08.561Z,95283.00
2019-04-26T06:55:20.114Z,95281.00
2019-04-26T06:58:45.309Z,95292.00
2019-04-26T07:01:35.948Z,95296.00
2019-04-26T07:05:22.946Z,95295.00
2019-04-26T07:09:11.718Z,95293.00
2019-04-26T07:12:37.027Z,95304.00
2019-04-26T07:15:51.698Z,95312.00
2019-04-26T07:18:56.698Z,95308.00
2019-04-26T07:22:34.542Z,95331.00
2019-04-26T07:25:54.009Z,95336.00
2019-04-26T07:29:32.828Z,95330.00
2019-04-26T07:33:28.744Z,95341.00
2019-04-26T07:36:53.306Z,95347.00
2019-04-26T07:40:23.033Z,95345.00
2019-04-26T07:43:45.503Z,95350.00
2019-04-26T07:47:25.756Z,95358.00
2019-04-26T07:51:06.407Z,95364.00
2019-04-26T07:54:45.871Z,95379.00
2019-04-26T07:58:25.530Z,95391.00
2019-04-26T08:01:17.726Z,95398.00
2019-04-26T08:04:03.782Z,95390.00
2019-04-26T08:06:53.373Z,95390.00
2019-04-26T08:09:27.648Z,95402.00
2019-04-26T08:12:06.116Z,95402.00
2019-04-26T08:15:15.699Z,95400.00
2019-04-26T08:17:57.187Z,95409.00
2019-04-26T08:20:48.373Z,95410.00
2019-04-26T08:23:41.667Z,95407.00
2019-04-26T08:26:15.543Z,95413.00
2019-04-26T08:28:49.544Z,95408.00
2019-04-26T08:31:24.425Z,95420.00
2019-04-26T08:34:02.335Z,95418.00
2019-04-26T08:36:40.268Z,95422.00
2019-04-26T08:39:29.709Z,95426.00
2019-04-26T08:41:59.310Z,95429.00
2019-04-26T08:44:53.431Z,95433.00
2019-04-26T08:47:46.079Z,95439.00
2019-04-26T08:50:27.592Z,95438.00
2019-04-26T08:53:01.194Z,95446.00
2019-04-26T08:55:34.738Z,95437.00
2019-04-26T08:58:10.691Z,95454.00
2019-04-26T09:00:51.831Z,95461.00
2019-04-26T09:03:39.781Z,95471.00
2019-04-26T09:06:19.027Z,95473.00
2019-04-26T09:08:51.375Z,95476.00
2019-04-26T09:11:29.985Z,95477.00
2019-04-26T09:13:58.717Z,95470.00
2019-04-26T09:16:30.545Z,95496.00
2019-04-26T09:19:02.418Z,95499.00
2019-04-26T09:21:42.292Z,95502.00
2019-04-26T09:24:26.653Z,95501.00
2019-04-26T09:27:24.037Z,95513.00
2019-04-26T09:30:08.471Z,95510.00
2019-04-26T09:33:08.297Z,95508.00
2019-04-26T09:35:40.521Z,95512.00
2019-04-26T09:38:12.670Z,95519.00
2019-04-26T09:40:44.789Z,95511.00
2019-04-26T09:43:38.584Z,95511.00
2019-04-26T09:46:35.140Z,95511.00
2019-04-26T09:49:23.641Z,95506.00
2019-04-26T09:51:55.997Z,95519.00
2019-04-26T09:54:27.809Z,95523.00
2019-04-26T09:56:59.656Z,95527.00
2019-04-26T09:59:31.844Z,95512.00
2019-04-26T10:02:03.680Z,95497.00
2019-04-26T10:04:35.510Z,95491.00
2019-04-26T10:07:07.701Z,95495.00
2019-04-26T10:09:39.509Z,95490.00
2019-04-26T10:12:19.388Z,95489.00
2019-04-26T10:14:56.380Z,95484.00
2019-04-26T10:17:30.412Z,95491.00
2019-04-26T10:20:02.215Z,95487.00
2019-04-26T10:22:34.403Z,95481.00
2019-04-26T10:25:14.178Z,95487.00
2019-04-26T10:27:42.396Z,95470.00
2019-04-26T10:30:17.087Z,95464.00
2019-04-26T10:32:49.198Z,95450.00
2019-04-26T10:35:21.783Z,95453.00
2019-04-26T10:37:54.596Z,95463.00
2019-04-26T10:40:35.249Z,95467.00
2019-04-26T10:43:00.215Z,95475.00
2019-04-26T10:45:32.295Z,95476.00
2019-04-26T10:48:04.161Z,95494.00
2019-04-26T10:50:36.077Z,95505.00
2019-04-26T10:53:30.296Z,95510.00
2019-04-26T10:56:20.278Z,95508.00
2019-04-26T10:59:06.062Z,95512.00
2019-04-26T11:01:38.288Z,95521.00
2019-04-26T11:04:10.131Z,95544.00
2019-04-26T11:06:41.932Z,95548.00
2019-04-26T11:09:13.782Z,95552.00
2019-04-26T11:11:45.849Z,95552.00
2019-04-26T11:14:18.322Z,95556.00
2019-04-26T11:16:51.343Z,95572.00
2019-04-26T11:19:23.489Z,95557.00
2019-04-26T11:21:56.025Z,95559.00
2019-04-26T11:24:27.901Z,95561.00
2019-04-26T11:26:59.986Z,95546.00
2019-04-26T11:29:31.831Z,95542.00
2019-04-26T11:32:04.300Z,95569.00
2019-04-26T11:34:36.198Z,95607.00
2019-04-26T11:37:08.058Z,95603.00
2019-04-26T11:39:41.934Z,95578.00
2019-04-26T11:42:14.088Z,95552.00
2019-04-26T11:44:46.563Z,95560.00
2019-04-26T11:47:18.628Z,95544.00
2019-04-26T11:49:50.507Z,95562.00
2019-04-26T11:52:22.339Z,95589.00
2019-04-26T11:54:55.216Z,95590.00
2019-04-26T11:57:27.705Z,95576.00
2019-04-26T12:00:01.398Z,95578.00
2019-04-26T12:02:37.618Z,95577.00
2019-04-26T12:05:37.704Z,95572.00
2019-04-26T12:08:12.928Z,95553.00
2019-04-26T12:10:45.933Z,95567.00
2019-04-26T12:13:21.342Z,95578.00
2019-04-26T12:15:51.676Z,95585.00
2019-04-26T12:18:23.825Z,95575.00
2019-04-26T12:20:57.191Z,95581.00
2019-04-26T12:23:29.270Z,95593.00
2019-04-26T12:26:01.437Z,95592.00
2019-04-26T12:28:36.295Z,95577.00
2019-04-26T12:31:07.147Z,95573.00
2019-04-26T12:33:43.120Z,95567.00
2019-04-26T12:36:13.259Z,95568.00
2019-04-26T12:38:46.425Z,95579.00
2019-04-26T12:41:25.306Z,95579.00
2019-04-26T12:43:54.477Z,95581.00
2019-04-26T12:46:54.873Z,95590.00
2019-04-26T12:49:26.687Z,95601.00
2019-04-26T12:51:58.558Z,95605.00
2019-04-26T12:54:30.637Z,95617.00
2019-04-26T12:57:05.804Z,95629.00
2019-04-26T12:59:44.057Z,95631.00
2019-04-26T13:02:10.340Z,95631.00
2019-04-26T13:04:44.453Z,95629.00
2019-04-26T13:07:23.985Z,95627.00
2019-04-26T13:10:20.490Z,95636.00
2019-04-26T13:12:59.745Z,95632.00
2019-04-26T13:16:02.504Z,95623.00
2019-04-26T13:18:34.435Z,95648.00
2019-04-26T13:21:06.307Z,95660.00
2019-04-26T13:23:38.444Z,95666.00
2019-04-26T13:26:10.610Z,95670.00
2019-04-26T13:28:42.737Z,95671.00
2019-04-26T13:31:14.619Z,95682.00
2019-04-26T13:33:46.729Z,95694.00
2019-04-26T13:36:18.540Z,95683.00
2019-04-26T13:38:51.131Z,95676.00
2019-04-26T13:41:22.912Z,95678.00
2019-04-26T13:43:57.132Z,95665.00
2019-04-26T13:46:42.829Z,95663.00
2019-04-26T13:49:48.201Z,95666.00
2019-04-26T13:52:19.238Z,95659.00
2019-04-26T13:54:55.376Z,95653.00
2019-04-26T13:57:25.173Z,95660.00
2019-04-26T13:59:57.020Z,95655.00
2019-04-26T14:02:28.827Z,95645.00
2019-04-26T14:05:00.659Z,95660.00
2019-04-26T14:07:32.454Z,95664.00
2019-04-26T14:10:04.709Z,95675.00
2019-04-26T14:12:37.219Z,95655.00
2019-04-26T14:15:10.253Z,95647.00
2019-04-26T14:17:42.166Z,95621.00
2019-04-26T14:20:14.485Z,95642.00
2019-04-26T14:22:55.061Z,95645.00
2019-04-26T14:25:32.037Z,95643.00
2019-04-26T14:28:03.931Z,95646.00
2019-04-26T14:30:37.469Z,95625.00
2019-04-26T14:33:09.882Z,95629.00
2019-04-26T14:35:41.990Z,95631.00
2019-04-26T14:38:13.806Z,95640.00
2019-04-26T14:40:45.734Z,95642.00
2019-04-26T14:43:18.332Z,95651.00
2019-04-26T14:45:56.119Z,95663.00
2019-04-26T14:48:35.705Z,95664.00
2019-04-26T14:51:07.783Z,95648.00
2019-04-26T14:53:36.226Z,95637.00
2019-04-26T14:56:06.038Z,95650.00
2019-04-26T14:58:37.833Z,95662.00
2019-04-26T15:01:13.749Z,95661.00
2019-04-26T15:03:51.385Z,95654.00
2019-04-26T15:06:26.585Z,95653.00
2019-04-26T15:08:58.366Z,95672.00
2019-04-26T15:11:32.232Z,95674.00
2019-04-26T15:14:03.977Z,95680.00
2019-04-26T15:16:35.816Z,95673.00
2019-04-26T15:19:09.926Z,95684.00
2019-04-26T15:21:42.231Z,95679.00
2019-04-26T15:24:14.142Z,95691.00
2019-04-26T15:26:46.257Z,95693.00
2019-04-26T15:29:21.264Z,95694.00
2019-04-26T15:31:53.770Z,95679.00
2019-04-26T15:34:26.629Z,95682.00
2019-04-26T15:36:58.616Z,95680.00
2019-04-26T15:40:02.671Z,95675.00
2019-04-26T15:43:09.269Z,95679.00
2019-04-26T15:45:57.000Z,95677.00
2019-04-26T15:48:42.972Z,95670.00
2019-04-26T15:51:15.906Z,95666.00
2019-04-26T15:53:48.717Z,95673.00
2019-04-26T15:56:22.301Z,95665.00
2019-04-26T15:58:54.917Z,95658.00
2019-04-26T16:01:26.724Z,95652.00
2019-04-26T16:03:58.588Z,95647.00
2019-04-26T16:06:32.123Z,95661.00
2019-04-26T16:09:05.239Z,95663.00
2019-04-26T16:11:37.187Z,95660.00
2019-04-26T16:14:09.165Z,95661.00
2019-04-26T16:16:42.371Z,95670.00
2019-04-26T16:19:14.336Z,95675.00
2019-04-26T16:21:48.174Z,95675.00
2019-04-26T16:24:20.523Z,95671.00
2019-04-26T16:26:55.968Z,95672.00
2019-04-26T16:29:58.454Z,95674.00
2019-04-26T16:32:58.799Z,95656.00
2019-04-26T16:35:28.572Z,95661.00
2019-04-26T16:38:19.983Z,95652.00
2019-04-26T16:40:53.519Z,95663.00
2019-04-26T16:43:36.400Z,95671.00
2019-04-26T16:45:59.715Z,95682.00
2019-04-26T16:48:31.653Z,95667.00
2019-04-26T16:51:08.278Z,95677.00
2019-04-26T16:53:52.086Z,95676.00
2019-04-26T16:56:10.927Z,95677.00
2019-04-26T16:58:45.324Z,95675.00
2019-04-26T17:01:16.637Z,95676.00
2019-04-26T17:03:48.829Z,95679.00
2019-04-26T17:06:20.723Z,95680.00
2019-04-26T17:09:00.866Z,95678.00
2019-04-26T17:11:26.330Z,95691.00
2019-04-26T17:14:04.072Z,95699.00
2019-04-26T17:16:36.928Z,95689.00
2019-04-26T17:19:06.328Z,95697.00
2019-04-26T17:21:45.013Z,95701.00
2019-04-26T17:24:30.870Z,95697.00
2019-04-26T17:27:09.557Z,95705.00
2019-04-26T17:29:38.921Z,95711.00
2019-04-26T17:32:13.954Z,95709.00
2019-04-26T17:34:44.274Z,95720.00
2019-04-26T17:37:17.477Z,95720.00
2019-04-26T17:39:52.214Z,95718.00
2019-04-26T17:42:25.214Z,95729.00
2019-04-26T17:44:57.506Z,95724.00
2019-04-26T17:47:34.586Z,95722.00
2019-04-26T17:50:06.359Z,95731.00
2019-04-26T17:52:38.915Z,95732.00
2019-04-26T17:55:14.023Z,95730.00
2019-04-26T17:57:48.400Z,95727.00
2019-04-26T18:00:27.066Z,95724.00
2019-04-26T18:02:54.748Z,95730.00
2019-04-26T18:05:41.759Z,95724.00
2019-04-26T18:08:30.462Z,95730.00
2019-04-26T18:10:35.648Z,95732.00
2019-04-26T18:13:11.271Z,95730.00
2019-04-26T18:15:46.826Z,95742.00
2019-04-26T18:18:34.643Z,95738.00
2019-04-26T18:21:27.526Z,95740.00
2019-04-26T18:23:59.725Z,95742.00
2019-04-26T18:26:32.764Z,95747.00
2019-04-26T18:29:04.801Z,95741.00
2019-04-26T18:31:36.887Z,95743.00
2019-04-26T18:34:08.730Z,95747.00
2019-04-26T18:36:40.815Z,95735.00
2019-04-26T18:39:14.434Z,95740.00
2019-04-26T18:41:46.514Z,95739.00
2019-04-26T18:44:18.622Z,95731.00
2019-04-26T18:46:58.663Z,95736.00
2019-04-26T18:49:30.583Z,95740.00
2019-04-26T18:52:03.724Z,95737.00
2019-04-26T18:54:41.721Z,95736.00
2019-04-26T18:57:16.924Z,95734.00
2019-04-26T18:59:51.051Z,95730.00
2019-04-26T19:02:23.549Z,95730.00
2019-04-26T19:04:55.798Z,95726.00
2019-04-26T19:07:32.292Z,95724.00
2019-04-26T19:10:05.110Z,95724.00
2019-04-26T19:12:35.013Z,95730.00
2019-04-26T19:15:40.354Z,95722.00
2019-04-26T19:18:19.529Z,95729.00
2019-04-26T19:21:06.804Z,95734.00
2019-04-26T19:23:38.899Z,95733.00
2019-04-26T19:26:13.766Z,95735.00
2019-04-26T19:28:44.880Z,95741.00
2019-04-26T19:31:19.301Z,95750.00
2019-04-26T19:33:51.734Z,95749.00
2019-04-26T19:36:26.201Z,95748.00
2019-04-26T19:38:57.806Z,95757.00
2019-04-26T19:41:31.419Z,95745.00
2019-04-26T19:44:03.395Z,95740.00
2019-04-26T19:47:03.250Z,95739.00
2019-04-26T19:49:52.370Z,95738.00
2019-04-26T19:52:47.741Z,95739.00
2019-04-26T19:55:41.824Z,95732.00
2019-04-26T19:58:20.056Z,95741.00
2019-04-26T20:00:48.200Z,95746.00
2019-04-26T20:03:20.767Z,95750.00
2019-04-26T20:05:53.019Z,95746.00
2019-04-26T20:08:24.861Z,95738.00
2019-04-26T20:10:56.837Z,95742.00
2019-04-26T20:13:28.681Z,95737.00
2019-04-26T20:16:02.688Z,95730.00
2019-04-26T20:18:38.695Z,95729.00
2019-04-26T20:21:12.395Z,95740.00
2019-04-26T20:23:45.835Z,95748.00
2019-04-26T20:26:15.537Z,95749.00
2019-04-26T20:28:48.072Z,95754.00
2019-04-26T20:31:29.955Z,95762.00
2019-04-26T20:34:05.620Z,95762.00
2019-04-26T20:36:40.721Z,95768.00
2019-04-26T20:39:09.789Z,95764.00
2019-04-26T20:41:41.820Z,95766.00
2019-04-26T20:44:13.695Z,95767.00
2019-04-26T20:46:45.515Z,95766.00
2019-04-26T20:49:19.240Z,95770.00
2019-04-26T20:51:51.894Z,95769.00
2019-04-26T20:54:24.312Z,95767.00
2019-04-26T20:56:56.199Z,95774.00
2019-04-26T20:59:28.274Z,95777.00
2019-04-26T21:02:07.535Z,95778.00
2019-04-26T21:04:38.006Z,95785.00
2019-04-26T21:07:11.337Z,95779.00
2019-04-26T21:09:43.523Z,95773.00
2019-04-26T21:12:18.337Z,95773.00
2019-04-26T21:14:49.213Z,95775.00
2019-04-26T21:17:26.383Z,95764.00
2019-04-26T21:19:58.531Z,95762.00
2019-04-26T21:22:29.019Z,95771.00
2019-04-26T21:25:12.678Z,95772.00
2019-04-26T21:28:06.532Z,95770.00
2019-04-26T21:30:41.771Z,95776.00
2019-04-26T21:33:20.453Z,95769.00
2019-04-26T21:36:14.206Z,95777.00
2019-04-26T21:39:20.299Z,95780.00
2019-04-26T21:41:53.224Z,95795.00
2019-04-26T21:44:25.599Z,95789.00
2019-04-26T21:46:58.994Z,95792.00
2019-04-26T21:49:32.657Z,95791.00
2019-04-26T21:52:05.221Z,95797.00
2019-04-26T21:54:37.196Z,95801.00
2019-04-26T21:57:09.060Z,95797.00
2019-04-26T21:59:43.778Z,95798.00
2019-04-26T22:02:14.715Z,95802.00
2019-04-26T22:04:46.515Z,95801.00
2019-04-26T22:07:19.119Z,95787.00
2019-04-26T22:10:10.768Z,95781.00
2019-04-26T22:12:43.267Z,95779.00
2019-04-26T22:15:37.474Z,95779.00
2019-04-26T22:18:21.625Z,95776.00
2019-04-26T22:21:21.605Z,95787.00
2019-04-26T22:24:14.877Z,95776.00
2019-04-26T22:26:48.068Z,95779.00
2019-04-26T22:29:20.396Z,95777.00
2019-04-26T22:31:54.593Z,95780.00
2019-04-26T22:34:26.864Z,95777.00
2019-04-26T22:37:01.777Z,95784.00
2019-04-26T22:39:39.842Z,95777.00
2019-04-26T22:42:06.718Z,95791.00
2019-04-26T22:44:46.169Z,95779.00
2019-04-26T22:47:24.138Z,95795.00
2019-04-26T22:49:56.290Z,95792.00
2019-04-26T22:52:28.375Z,95781.00
2019-04-26T22:55:00.852Z,95791.00
2019-04-26T22:57:33.365Z,95777.00
2019-04-26T23:00:06.977Z,95780.00
2019-04-26T23:02:39.172Z,95782.00
2019-04-26T23:05:11.249Z,95784.00
2019-04-26T23:07:43.039Z,95793.00
2019-04-26T23:10:16.418Z,95798.00
2019-04-26T23:13:07.936Z,95793.00
2019-04-26T23:16:08.264Z,95799.00
2019-04-26T23:18:47.322Z,95782.00
2019-04-26T23:21:25.042Z,95789.00
2019-04-26T23:23:56.973Z,95786.00
2019-04-26T23:26:29.099Z,95784.00
2019-04-26T23:29:00.981Z,95795.00
2019-04-26T23:31:33.496Z,95796.00
2019-04-26T23:34:05.631Z,95797.00
2019-04-26T23:36:37.496Z,95790.00
2019-04-26T23:39:12.138Z,95787.00
2019-04-26T23:41:44.605Z,95792.00
2019-04-26T23:44:16.774Z,95787.00
2019-04-26T23:46:49.006Z,95778.00
2019-04-26T23:49:20.816Z,95778.00
2019-04-26T23:51:53.354Z,95778.00
2019-04-26T23:54:28.082Z,95788.00
2019-04-26T23:56:59.528Z,95783.00
2019-04-26T23:59:31.323Z,95771.00
